createdAt,value
2019-03-22T00:00:21.309Z,92.70
2019-03-22T00:02:50.025Z,92.80
2019-03-22T00:05:18.760Z,92.50
2019-03-22T00:07:48.636Z,92.40
2019-03-22T00:10:17.615Z,92.40
2019-03-22T00:12:46.398Z,92.80
2019-03-22T00:15:15.378Z,92.70
2019-03-22T00:17:44.197Z,92.70
2019-03-22T00:20:13.111Z,92.60
2019-03-22T00:22:41.855Z,93.00
2019-03-22T00:25:10.731Z,92.90
2019-03-22T00:27:39.544Z,93.00
2019-03-22T00:30:09.325Z,92.80
2019-03-22T00:32:37.897Z,92.50
2019-03-22T00:35:07.709Z,92.70
2019-03-22T00:37:36.523Z,92.70
2019-03-22T00:40:10.317Z,92.80
2019-03-22T00:42:38.839Z,92.60
2019-03-22T00:45:09.280Z,92.90
2019-03-22T00:47:38.068Z,92.80
2019-03-22T00:50:07.967Z,92.80
2019-03-22T00:52:36.872Z,92.80
2019-03-22T00:55:06.745Z,92.80
2019-03-22T00:57:35.500Z,92.80
2019-03-22T01:00:07.428Z,93.00
2019-03-22T01:02:36.216Z,93.40
2019-03-22T01:05:08.090Z,93.40
2019-03-22T01:07:36.848Z,93.60
2019-03-22T01:10:10.618Z,93.50
2019-03-22T01:12:39.504Z,93.60
2019-03-22T01:15:10.019Z,93.50
2019-03-22T01:17:38.910Z,92.80
2019-03-22T01:20:09.377Z,92.80
2019-03-22T01:22:38.167Z,92.90
2019-03-22T01:25:07.844Z,93.10
2019-03-22T01:27:40.927Z,93.40
2019-03-22T01:30:13.242Z,93.60
2019-03-22T01:32:42.042Z,93.50
2019-03-22T01:35:11.457Z,93.50
2019-03-22T01:37:40.231Z,93.40
2019-03-22T01:40:11.399Z,93.80
2019-03-22T01:42:40.206Z,93.70
2019-03-22T01:45:11.815Z,93.60
2019-03-22T01:47:40.629Z,93.40
2019-03-22T01:50:15.444Z,93.60
2019-03-22T01:52:43.952Z,93.80
2019-03-22T01:55:12.824Z,94.00
2019-03-22T01:57:52.496Z,93.80
2019-03-22T02:00:17.763Z,93.60
2019-03-22T02:02:46.619Z,94.00
2019-03-22T02:05:15.490Z,93.70
2019-03-22T02:07:44.734Z,93.60
2019-03-22T02:10:13.872Z,93.90
2019-03-22T02:12:42.744Z,94.00
2019-03-22T02:15:16.267Z,94.40
2019-03-22T02:17:45.287Z,94.50
2019-03-22T02:20:15.777Z,94.70
2019-03-22T02:22:45.025Z,94.60
2019-03-22T02:25:15.158Z,94.40
2019-03-22T02:27:44.189Z,94.20
2019-03-22T02:30:15.420Z,93.90
2019-03-22T02:32:44.197Z,94.20
2019-03-22T02:35:27.573Z,94.10
2019-03-22T02:37:43.532Z,94.20
2019-03-22T02:40:13.197Z,94.00
2019-03-22T02:42:41.998Z,94.20
2019-03-22T02:45:15.491Z,94.10
2019-03-22T02:47:44.456Z,94.30
2019-03-22T02:50:18.494Z,94.30
2019-03-22T02:52:44.956Z,94.30
2019-03-22T02:55:14.456Z,94.20
2019-03-22T02:57:43.234Z,94.50
2019-03-22T03:00:16.579Z,94.40
2019-03-22T03:02:45.598Z,94.60
2019-03-22T03:05:14.957Z,94.70
2019-03-22T03:07:43.905Z,94.50
2019-03-22T03:10:15.930Z,94.50
2019-03-22T03:12:45.331Z,94.80
2019-03-22T03:15:18.657Z,94.60
2019-03-22T03:17:47.435Z,94.50
2019-03-22T03:20:17.730Z,94.60
2019-03-22T03:22:46.748Z,94.80
2019-03-22T03:25:17.275Z,94.80
2019-03-22T03:27:46.102Z,95.00
2019-03-22T03:30:19.927Z,94.80
2019-03-22T03:32:48.969Z,94.80
2019-03-22T03:35:18.398Z,94.50
2019-03-22T03:37:47.504Z,94.40
2019-03-22T03:40:18.142Z,94.30
2019-03-22T03:42:46.994Z,94.60
2019-03-22T03:45:38.402Z,94.70
2019-03-22T03:48:10.922Z,94.80
2019-03-22T03:50:39.609Z,94.90
2019-03-22T03:53:08.241Z,94.90
2019-03-22T03:55:37.238Z,95.00
2019-03-22T03:58:06.583Z,95.00
2019-03-22T04:00:35.395Z,94.70
2019-03-22T04:03:04.485Z,95.00
2019-03-22T04:05:33.390Z,95.20
2019-03-22T04:08:02.289Z,95.10
2019-03-22T04:10:31.186Z,95.00
2019-03-22T04:13:02.438Z,95.10
2019-03-22T04:15:33.323Z,95.30
2019-03-22T04:18:03.008Z,95.30
2019-03-22T04:20:35.243Z,95.40
2019-03-22T04:23:06.224Z,95.60
2019-03-22T04:25:35.195Z,95.50
2019-03-22T04:28:04.093Z,95.40
2019-03-22T04:30:32.638Z,95.20
2019-03-22T04:33:06.530Z,95.00
2019-03-22T04:35:36.716Z,95.30
2019-03-22T04:38:05.684Z,95.70
2019-03-22T04:40:47.447Z,95.50
2019-03-22T04:43:54.063Z,95.50
2019-03-22T04:45:49.398Z,95.80
2019-03-22T04:48:20.987Z,95.70
2019-03-22T04:50:51.184Z,95.80
2019-03-22T04:53:23.432Z,95.70
2019-03-22T04:55:55.237Z,95.50
2019-03-22T04:58:25.627Z,95.60
2019-03-22T05:00:55.315Z,95.90
2019-03-22T05:03:26.505Z,95.70
2019-03-22T05:05:56.951Z,95.60
2019-03-22T05:08:28.667Z,95.60
2019-03-22T05:10:59.936Z,95.80
2019-03-22T05:13:29.790Z,95.90
2019-03-22T05:15:58.884Z,95.90
2019-03-22T05:18:29.570Z,95.90
2019-03-22T05:20:59.125Z,95.60
2019-03-22T05:23:29.665Z,95.40
2019-03-22T05:26:04.087Z,95.30
2019-03-22T05:28:34.081Z,95.60
2019-03-22T05:31:11.844Z,95.70
2019-03-22T05:33:40.624Z,95.70
2019-03-22T05:36:09.447Z,95.90
2019-03-22T05:38:38.152Z,95.60
2019-03-22T05:41:07.116Z,95.30
2019-03-22T05:43:35.798Z,95.10
2019-03-22T05:46:04.679Z,94.60
2019-03-22T05:48:33.543Z,94.50
2019-03-22T05:51:02.519Z,94.40
2019-03-22T05:53:31.399Z,94.40
2019-03-22T05:56:00.301Z,95.00
2019-03-22T05:58:29.267Z,93.70
2019-03-22T06:00:58.053Z,93.70
2019-03-22T06:03:27.028Z,93.60
2019-03-22T06:06:00.861Z,93.70
2019-03-22T06:08:29.642Z,93.60
2019-03-22T06:14:19.103Z,92.10
2019-03-22T06:16:48.066Z,80.60
2019-03-22T06:19:16.521Z,69.60
2019-03-22T06:21:45.468Z,61.40
2019-03-22T06:24:14.080Z,57.20
2019-03-22T06:26:43.011Z,54.20
2019-03-22T06:29:11.610Z,51.10
2019-03-22T06:31:40.391Z,48.80
2019-03-22T06:34:09.297Z,46.00
2019-03-22T06:36:38.084Z,46.00
2019-03-22T06:39:08.224Z,46.70
2019-03-22T06:41:37.345Z,46.90
2019-03-22T06:44:06.493Z,46.20
2019-03-22T06:46:35.286Z,45.00
2019-03-22T06:49:04.128Z,45.40
2019-03-22T06:51:32.945Z,44.80
2019-03-22T06:54:01.413Z,44.00
2019-03-22T06:56:30.202Z,42.80
2019-03-22T06:58:58.778Z,42.00
2019-03-22T07:01:27.659Z,41.30
2019-03-22T07:03:56.213Z,40.80
2019-03-22T07:06:25.044Z,40.00
2019-03-22T07:08:53.865Z,38.70
2019-03-22T07:11:22.669Z,37.90
2019-03-22T07:13:51.573Z,36.90
2019-03-22T07:16:20.329Z,36.20
2019-03-22T07:18:49.146Z,36.00
2019-03-22T07:21:17.985Z,35.80
2019-03-22T07:23:46.852Z,35.40
2019-03-22T07:26:15.670Z,35.40
2019-03-22T07:28:44.517Z,35.50
2019-03-22T07:31:13.464Z,35.10
2019-03-22T07:33:42.237Z,35.00
2019-03-22T07:36:11.053Z,34.80
2019-03-22T07:38:39.946Z,35.00
2019-03-22T07:41:08.468Z,35.30
2019-03-22T07:43:37.331Z,35.60
2019-03-22T07:46:06.248Z,35.50
2019-03-22T07:48:35.107Z,36.30
2019-03-22T07:51:03.964Z,35.60
2019-03-22T07:53:32.550Z,35.60
2019-03-22T07:56:01.323Z,36.60
2019-03-22T07:58:30.189Z,36.80
2019-03-22T08:00:58.721Z,38.30
2019-03-22T08:03:27.205Z,37.70
2019-03-22T08:05:56.009Z,38.10
2019-03-22T08:08:24.942Z,40.00
2019-03-22T08:10:53.777Z,41.90
2019-03-22T08:13:22.659Z,42.70
2019-03-22T08:15:51.448Z,42.60
2019-03-22T08:18:20.295Z,41.50
2019-03-22T08:20:49.396Z,42.20
2019-03-22T08:23:20.368Z,41.90
2019-03-22T08:25:49.481Z,44.80
2019-03-22T08:28:18.094Z,45.90
2019-03-22T08:30:46.635Z,47.50
2019-03-22T08:33:15.436Z,49.20
2019-03-22T08:35:44.337Z,47.90
2019-03-22T08:38:13.135Z,47.00
2019-03-22T08:40:41.614Z,45.00
2019-03-22T08:43:10.503Z,44.90
2019-03-22T08:45:39.291Z,44.10
2019-03-22T08:48:09.065Z,42.70
2019-03-22T08:50:37.591Z,42.70
2019-03-22T08:53:06.418Z,42.80
2019-03-22T08:55:35.259Z,42.80
2019-03-22T08:58:04.157Z,41.90
2019-03-22T09:00:39.329Z,43.00
2019-03-22T09:03:03.386Z,44.80
2019-03-22T09:05:32.292Z,44.10
2019-03-22T09:08:01.170Z,44.50
2019-03-22T09:10:30.167Z,43.70
2019-03-22T09:12:59.141Z,44.90
2019-03-22T09:15:40.237Z,46.40
2019-03-22T09:17:58.305Z,44.70
2019-03-22T09:20:27.238Z,42.70
2019-03-22T09:22:56.077Z,44.20
2019-03-22T09:25:24.991Z,42.50
2019-03-22T09:27:53.795Z,40.70
2019-03-22T09:30:22.636Z,43.50
2019-03-22T09:32:51.646Z,42.90
2019-03-22T09:35:20.418Z,42.80
2019-03-22T09:37:49.306Z,43.00
2019-03-22T09:40:18.258Z,44.60
2019-03-22T09:42:47.980Z,45.20
2019-03-22T09:45:17.203Z,43.80
2019-03-22T09:47:46.080Z,44.00
2019-03-22T09:50:15.393Z,45.10
2019-03-22T09:52:44.229Z,43.50
2019-03-22T09:55:14.266Z,43.70
2019-03-22T09:57:43.376Z,41.30
2019-03-22T10:00:27.510Z,40.60
2019-03-22T10:02:56.021Z,43.50
2019-03-22T10:05:24.915Z,38.50
2019-03-22T10:07:53.509Z,41.50
2019-03-22T10:10:22.376Z,41.90
2019-03-22T10:12:50.969Z,38.50
2019-03-22T10:15:19.691Z,42.40
2019-03-22T10:17:49.530Z,38.90
2019-03-22T10:20:18.394Z,42.10
2019-03-22T10:22:46.990Z,38.30
2019-03-22T10:25:15.782Z,38.40
2019-03-22T10:27:44.264Z,38.00
2019-03-22T10:30:15.095Z,39.50
2019-03-22T10:32:43.956Z,37.40
2019-03-22T10:35:25.497Z,39.60
2019-03-22T10:37:42.953Z,39.10
2019-03-22T10:40:11.841Z,39.00
2019-03-22T10:42:40.628Z,38.70
2019-03-22T10:45:10.095Z,38.50
2019-03-22T10:47:38.888Z,39.50
2019-03-22T10:50:08.765Z,38.30
2019-03-22T10:52:38.628Z,39.20
2019-03-22T10:55:28.554Z,38.00
2019-03-22T10:57:40.847Z,39.20
2019-03-22T11:00:12.622Z,38.50
2019-03-22T11:02:41.389Z,37.80
2019-03-22T11:05:10.487Z,38.50
2019-03-22T11:07:39.278Z,40.70
2019-03-22T11:10:11.192Z,40.20
2019-03-22T11:12:40.544Z,38.00
2019-03-22T11:15:11.730Z,39.10
2019-03-22T11:17:40.475Z,39.00
2019-03-22T11:20:15.010Z,40.20
2019-03-22T11:22:59.621Z,39.10
2019-03-22T11:25:28.543Z,41.60
2019-03-22T11:27:56.973Z,39.00
2019-03-22T11:30:25.779Z,41.50
2019-03-22T11:32:54.483Z,41.00
2019-03-22T11:35:23.151Z,38.80
2019-03-22T11:37:51.871Z,40.40
2019-03-22T11:40:20.739Z,40.60
2019-03-22T11:42:51.433Z,40.50
2019-03-22T11:45:24.632Z,38.60
2019-03-22T11:47:53.674Z,41.20
2019-03-22T11:50:23.191Z,40.30
2019-03-22T11:52:51.915Z,41.20
2019-03-22T11:55:20.758Z,43.00
2019-03-22T11:57:49.206Z,42.30
2019-03-22T12:00:25.371Z,40.60
2019-03-22T12:02:54.135Z,42.60
2019-03-22T12:05:23.273Z,43.00
2019-03-22T12:07:52.065Z,41.60
2019-03-22T12:10:21.425Z,40.10
2019-03-22T12:12:50.273Z,41.30
2019-03-22T12:15:23.438Z,40.80
2019-03-22T12:17:52.128Z,39.80
2019-03-22T12:20:22.767Z,41.50
2019-03-22T12:22:51.766Z,40.60
2019-03-22T12:25:22.698Z,42.30
2019-03-22T12:27:52.010Z,40.70
2019-03-22T12:30:20.804Z,40.50
2019-03-22T12:32:49.571Z,39.60
2019-03-22T12:35:19.409Z,38.10
2019-03-22T12:37:48.191Z,39.20
2019-03-22T12:40:21.534Z,38.10
2019-03-22T12:43:11.327Z,38.80
2019-03-22T13:01:21.331Z,39.90
2019-03-22T13:03:50.306Z,38.70
2019-03-22T13:06:18.731Z,41.80
2019-03-22T13:08:47.179Z,40.40
2019-03-22T13:11:15.960Z,42.10
2019-03-22T13:13:44.746Z,40.50
2019-03-22T13:17:11.595Z,40.90
2019-03-22T13:20:10.686Z,42.30
2019-03-22T14:41:45.662Z,47.40
2019-03-22T14:44:14.451Z,47.80
2019-03-22T14:46:43.215Z,48.30
2019-03-22T14:49:12.022Z,48.50
2019-03-22T14:51:40.859Z,48.70
2019-03-22T14:54:09.667Z,47.60
2019-03-22T14:56:38.476Z,47.00
2019-03-22T14:59:06.941Z,48.00
2019-03-22T15:07:26.968Z,46.80
2019-03-22T15:10:05.042Z,46.80
2019-03-22T15:12:33.799Z,47.30
2019-03-22T15:15:07.752Z,46.60
2019-03-22T15:20:21.944Z,47.10
2019-03-22T15:25:05.334Z,47.10
2019-03-22T15:29:28.023Z,46.00
2019-03-22T16:04:03.792Z,49.10
2019-03-22T16:06:32.494Z,50.40
2019-03-22T16:09:01.187Z,47.70
2019-03-22T16:11:29.897Z,48.50
2019-03-22T16:13:58.321Z,49.80
2019-03-22T16:16:27.024Z,49.00
2019-03-22T16:18:55.455Z,49.40
2019-03-22T16:22:01.059Z,50.10
2019-03-22T16:24:01.749Z,50.50
2019-03-22T16:26:30.878Z,51.40
2019-03-22T16:28:59.371Z,52.20
2019-03-22T16:31:28.902Z,53.10
2019-03-22T16:33:57.766Z,54.20
2019-03-22T16:36:26.483Z,53.60
2019-03-22T16:38:54.952Z,55.50
2019-03-22T16:41:23.373Z,54.80
2019-03-22T16:43:51.794Z,55.00
2019-03-22T16:46:20.533Z,54.40
2019-03-22T16:48:48.955Z,55.90
2019-03-22T16:51:18.398Z,54.60
2019-03-22T16:53:47.111Z,55.00
2019-03-22T16:56:15.803Z,55.50
2019-03-22T16:58:44.221Z,55.80
2019-03-22T17:01:12.928Z,56.40
2019-03-22T17:03:44.391Z,56.80
2019-03-22T17:06:15.811Z,57.20
2019-03-22T17:08:44.628Z,57.80
2019-03-22T17:11:13.313Z,58.50
2019-03-22T17:13:42.103Z,59.50
2019-03-22T17:16:11.817Z,59.60
2019-03-22T17:18:40.844Z,60.80
2019-03-22T17:22:48.645Z,61.90
2019-03-22T17:24:07.963Z,62.40
2019-03-22T17:26:39.905Z,62.80
2019-03-22T17:29:09.005Z,63.60
2019-03-22T17:31:46.835Z,64.70
2019-03-22T17:34:14.469Z,65.30
2019-03-22T17:36:42.043Z,66.30
2019-03-22T17:39:14.711Z,65.50
2019-03-22T17:41:43.528Z,65.10
2019-03-22T17:44:12.495Z,66.80
2019-03-22T17:46:52.219Z,67.10
2019-03-22T17:49:23.413Z,67.80
2019-03-22T17:51:52.240Z,68.30
2019-03-22T17:54:20.800Z,68.00
2019-03-22T17:56:49.715Z,68.80
2019-03-22T17:59:18.603Z,70.10
2019-03-22T18:01:47.467Z,71.80
2019-03-22T18:04:23.877Z,70.50
2019-03-22T18:06:46.640Z,71.10
2019-03-22T18:09:15.561Z,72.50
2019-03-22T18:11:44.473Z,73.90
2019-03-22T18:14:16.232Z,73.80
2019-03-22T18:16:44.733Z,73.90
2019-03-22T18:19:13.731Z,74.20
2019-03-22T18:21:42.553Z,74.80
2019-03-22T18:24:11.353Z,75.00
2019-03-22T18:26:39.966Z,75.10
2019-03-22T18:29:08.861Z,75.80
2019-03-22T18:31:37.754Z,77.50
2019-03-22T18:34:06.530Z,79.60
2019-03-22T18:36:35.435Z,78.70
2019-03-22T18:39:07.531Z,79.70
2019-03-22T18:41:36.422Z,80.90
2019-03-22T18:44:05.078Z,81.70
2019-03-22T18:46:33.579Z,82.30
2019-03-22T18:49:02.431Z,83.00
2019-03-22T18:51:31.319Z,83.60
2019-03-22T18:53:59.969Z,84.00
2019-03-22T18:56:28.863Z,84.30
2019-03-22T18:58:57.737Z,85.00
2019-03-22T19:01:26.212Z,85.60
2019-03-22T19:03:55.208Z,85.80
2019-03-22T19:06:24.111Z,86.10
2019-03-22T19:08:53.009Z,87.00
2019-03-22T19:11:21.591Z,86.30
2019-03-22T19:13:50.449Z,86.50
2019-03-22T19:16:19.358Z,86.60
2019-03-22T19:18:48.284Z,87.70
2019-03-22T19:21:17.179Z,87.60
2019-03-22T19:23:46.027Z,87.80
2019-03-22T19:26:14.904Z,88.20
2019-03-22T19:28:43.375Z,88.10
2019-03-22T19:31:12.242Z,88.90
2019-03-22T19:33:41.070Z,89.40
2019-03-22T19:36:09.713Z,89.60
2019-03-22T19:38:38.535Z,89.10
2019-03-22T19:41:07.460Z,88.80
2019-03-22T19:43:36.311Z,89.10
2019-03-22T19:46:05.621Z,89.80
2019-03-22T19:48:34.490Z,90.10
2019-03-22T19:51:03.370Z,90.40
2019-03-22T19:53:31.978Z,90.20
2019-03-22T19:56:00.575Z,90.70
2019-03-22T19:58:29.087Z,90.80
2019-03-22T20:00:57.665Z,90.80
2019-03-22T20:03:26.529Z,90.30
2019-03-22T20:05:55.426Z,90.50
2019-03-22T20:08:23.999Z,90.60
2019-03-22T20:10:52.876Z,90.70
2019-03-22T20:13:22.231Z,91.20
2019-03-22T20:15:51.251Z,91.00
2019-03-22T20:18:20.100Z,90.70
2019-03-22T20:20:49.006Z,90.70
2019-03-22T20:23:17.842Z,90.80
2019-03-22T20:25:46.787Z,90.60
2019-03-22T20:28:23.291Z,91.00
2019-03-22T20:30:52.254Z,91.20
2019-03-22T20:33:25.712Z,91.00
2019-03-22T20:35:54.345Z,91.10
2019-03-22T20:41:43.469Z,91.30
2019-03-22T20:44:12.650Z,91.80
2019-03-22T20:46:49.034Z,91.80
2019-03-22T20:49:18.146Z,91.80
2019-03-22T20:51:46.839Z,92.00
2019-03-22T20:54:17.522Z,92.20
2019-03-22T20:56:46.713Z,92.30
2019-03-22T21:13:34.575Z,92.30
2019-03-22T21:16:03.469Z,92.60
2019-03-22T21:18:32.354Z,92.70
2019-03-22T21:21:01.271Z,92.40
2019-03-22T21:23:36.253Z,92.60
2019-03-22T21:26:00.368Z,92.70
2019-03-22T21:28:29.278Z,93.00
2019-03-22T21:30:58.141Z,92.90
2019-03-22T21:33:26.990Z,93.10
2019-03-22T21:35:55.976Z,93.20
2019-03-22T21:38:24.839Z,93.10
2019-03-22T21:40:53.421Z,93.00
2019-03-22T21:43:22.242Z,93.10
2019-03-22T21:45:51.034Z,93.30
2019-03-22T21:48:19.877Z,93.30
2019-03-22T21:50:48.858Z,93.30
2019-03-22T21:53:17.732Z,93.50
2019-03-22T21:55:46.603Z,93.00
2019-03-22T21:58:15.493Z,93.30
2019-03-22T22:00:44.365Z,93.30
2019-03-22T22:03:13.037Z,93.50
2019-03-22T22:05:47.804Z,93.70
2019-03-22T22:08:12.448Z,93.70
2019-03-22T22:10:41.305Z,93.80
2019-03-22T22:13:10.125Z,93.80
2019-03-22T22:15:38.928Z,93.80
2019-03-22T22:18:07.723Z,93.90
2019-03-22T22:20:36.657Z,94.10
2019-03-22T22:23:05.466Z,94.30
2019-03-22T22:25:34.345Z,94.60
2019-03-22T22:28:03.223Z,94.60
2019-03-22T22:30:31.748Z,94.60
2019-03-22T22:33:00.539Z,94.70
2019-03-22T22:35:29.428Z,94.30
2019-03-22T22:37:58.215Z,94.20
2019-03-22T22:40:27.078Z,94.30
2019-03-22T22:42:55.928Z,94.40
2019-03-22T22:45:24.889Z,94.50
2019-03-22T22:47:53.737Z,94.60
2019-03-22T22:50:22.658Z,94.70
2019-03-22T22:52:51.139Z,94.80
2019-03-22T22:55:19.978Z,94.70
2019-03-22T22:57:48.832Z,94.80
2019-03-22T23:00:18.332Z,94.10
2019-03-22T23:02:47.222Z,94.00
2019-03-22T23:05:16.203Z,94.20
2019-03-22T23:07:45.021Z,94.40
2019-03-22T23:10:14.006Z,94.60
2019-03-22T23:12:43.806Z,94.80
2019-03-22T23:15:12.531Z,94.80
2019-03-22T23:17:41.433Z,95.00
2019-03-22T23:20:11.259Z,95.20
2019-03-22T23:22:39.760Z,94.90
2019-03-22T23:25:09.212Z,95.20
2019-03-22T23:27:38.284Z,95.10
2019-03-22T23:30:12.103Z,95.10
2019-03-22T23:32:41.260Z,95.20
2019-03-22T23:35:10.387Z,95.50
2019-03-22T23:37:38.939Z,95.60
2019-03-22T23:40:08.767Z,95.70
2019-03-22T23:42:37.637Z,95.50
2019-03-22T23:45:09.136Z,95.70
2019-03-22T23:47:38.039Z,95.50
2019-03-22T23:50:10.162Z,95.50
2019-03-22T23:52:39.013Z,95.50
2019-03-22T23:55:08.632Z,95.50
2019-03-22T23:57:37.452Z,95.70
